createdAt,value
2017-10-04T00:00:57.784Z,7.83
2017-10-04T00:01:57.777Z,7.79
2017-10-04T00:03:18.767Z,7.82
2017-10-04T00:03:57.749Z,7.77
2017-10-04T00:04:58.566Z,7.72
2017-10-04T00:05:57.679Z,7.75
2017-10-04T00:06:57.718Z,7.72
2017-10-04T00:07:57.627Z,7.82
2017-10-04T00:09:18.639Z,7.73
2017-10-04T00:09:57.602Z,7.66
2017-10-04T00:10:57.594Z,7.56
2017-10-04T00:11:57.590Z,7.63
2017-10-04T00:12:57.541Z,7.54
2017-10-04T00:13:57.517Z,7.54
2017-10-04T00:15:18.511Z,7.56
2017-10-04T00:15:57.497Z,7.45
2017-10-04T00:16:57.451Z,7.47
2017-10-04T00:17:57.435Z,7.38
2017-10-04T00:18:57.439Z,7.33
2017-10-04T00:19:57.370Z,7.31
2017-10-04T00:21:18.359Z,7.31
2017-10-04T00:21:57.344Z,7.25
2017-10-04T00:22:57.334Z,7.25
2017-10-04T00:23:57.310Z,7.13
2017-10-04T00:24:57.308Z,7.13
2017-10-04T00:25:57.245Z,7.03
2017-10-04T00:27:18.242Z,7.13
2017-10-04T00:27:57.227Z,7.02
2017-10-04T00:28:57.217Z,7.02
2017-10-04T00:29:57.170Z,7.06
2017-10-04T00:30:57.171Z,7.03
2017-10-04T00:31:57.143Z,7.10
2017-10-04T00:33:18.107Z,7.03
2017-10-04T00:33:57.096Z,7.13
2017-10-04T00:34:57.084Z,7.17
2017-10-04T00:35:57.071Z,7.13
2017-10-04T00:36:57.020Z,7.21
2017-10-04T00:37:57.015Z,7.23
2017-10-04T00:39:18.018Z,7.24
2017-10-04T00:39:56.990Z,7.25
2017-10-04T00:40:56.967Z,7.18
2017-10-04T00:41:56.905Z,7.25
2017-10-04T00:42:56.902Z,7.23
2017-10-04T00:43:56.865Z,7.28
2017-10-04T00:45:17.851Z,7.29
2017-10-04T00:45:56.836Z,7.32
2017-10-04T00:46:56.805Z,7.32
2017-10-04T00:47:56.780Z,7.24
2017-10-04T00:48:56.755Z,7.38
2017-10-04T00:49:56.753Z,7.39
2017-10-04T00:51:17.761Z,7.48
2017-10-04T00:51:56.723Z,7.39
2017-10-04T00:52:56.710Z,7.56
2017-10-04T00:53:56.694Z,7.56
2017-10-04T00:54:56.651Z,7.53
2017-10-04T00:55:56.638Z,7.51
2017-10-04T00:57:17.615Z,7.54
2017-10-04T00:57:56.584Z,7.58
2017-10-04T00:58:56.568Z,7.56
2017-10-04T00:59:56.539Z,7.54
2017-10-04T01:00:56.513Z,7.56
2017-10-04T01:01:56.515Z,7.48
2017-10-04T01:03:17.485Z,7.50
2017-10-04T01:03:56.449Z,7.58
2017-10-04T01:04:56.427Z,7.69
2017-10-04T01:05:56.400Z,7.63
2017-10-04T01:06:56.369Z,7.69
2017-10-04T01:07:56.352Z,7.56
2017-10-04T01:09:17.363Z,7.56
2017-10-04T01:09:56.320Z,7.56
2017-10-04T01:10:56.305Z,7.54
2017-10-04T01:11:56.276Z,7.57
2017-10-04T01:12:56.253Z,7.57
2017-10-04T01:13:56.280Z,7.54
2017-10-04T01:15:17.224Z,7.60
2017-10-04T01:15:56.225Z,7.67
2017-10-04T01:16:56.189Z,7.70
2017-10-04T01:17:56.170Z,7.75
2017-10-04T01:18:56.144Z,7.66
2017-10-04T01:19:56.134Z,7.69
2017-10-04T01:21:17.109Z,7.66
2017-10-04T01:21:56.065Z,7.66
2017-10-04T01:22:56.050Z,7.61
2017-10-04T01:23:56.016Z,7.57
2017-10-04T01:24:56.011Z,7.48
2017-10-04T01:25:56.003Z,7.54
2017-10-04T01:27:16.980Z,7.51
2017-10-04T01:27:55.935Z,7.47
2017-10-04T01:28:55.947Z,7.32
2017-10-04T01:29:55.895Z,7.29
2017-10-04T01:30:55.878Z,7.32
2017-10-04T01:31:55.890Z,7.20
2017-10-04T01:33:16.826Z,7.15
2017-10-04T01:33:55.823Z,7.11
2017-10-04T01:34:55.784Z,7.05
2017-10-04T01:35:55.778Z,7.10
2017-10-04T01:36:55.773Z,6.92
2017-10-04T01:37:55.739Z,6.88
2017-10-04T01:39:16.720Z,6.89
2017-10-04T01:39:55.687Z,6.89
2017-10-04T01:40:55.675Z,6.92
2017-10-04T01:41:55.684Z,6.87
2017-10-04T01:42:55.650Z,6.92
2017-10-04T01:43:55.632Z,6.89
2017-10-04T01:45:16.583Z,6.89
2017-10-04T01:45:55.554Z,6.89
2017-10-04T01:46:55.521Z,6.87
2017-10-04T01:47:55.515Z,6.85
2017-10-04T01:48:55.508Z,6.81
2017-10-04T01:49:55.492Z,6.74
2017-10-04T01:51:16.470Z,6.74
2017-10-04T01:51:55.441Z,6.70
2017-10-04T01:52:55.407Z,6.74
2017-10-04T01:53:55.362Z,6.79
2017-10-04T01:54:55.388Z,6.75
2017-10-04T01:55:55.333Z,6.67
2017-10-04T01:57:16.352Z,6.69
2017-10-04T01:57:55.317Z,6.77
2017-10-04T01:58:55.269Z,6.72
2017-10-04T01:59:55.275Z,6.75
2017-10-04T02:00:55.277Z,6.75
2017-10-04T02:01:55.246Z,6.75
2017-10-04T02:03:16.225Z,6.75
2017-10-04T02:03:55.170Z,6.60
2017-10-04T02:04:55.152Z,6.75
2017-10-04T02:05:55.129Z,6.72
2017-10-04T02:06:55.100Z,6.79
2017-10-04T02:07:55.109Z,6.77
2017-10-04T02:09:16.068Z,6.74
2017-10-04T02:09:55.057Z,6.72
2017-10-04T02:10:55.009Z,6.77
2017-10-04T02:11:54.992Z,6.66
2017-10-04T02:12:54.950Z,6.72
2017-10-04T02:13:54.969Z,6.78
2017-10-04T02:15:15.939Z,6.81
2017-10-04T02:15:54.910Z,6.87
2017-10-04T02:16:54.903Z,6.85
2017-10-04T02:17:54.863Z,6.93
2017-10-04T02:18:54.844Z,6.92
2017-10-04T02:19:54.825Z,6.89
2017-10-04T02:21:15.817Z,6.99
2017-10-04T02:21:54.782Z,6.96
2017-10-04T02:22:54.761Z,6.99
2017-10-04T02:23:54.757Z,6.99
2017-10-04T02:24:54.734Z,6.97
2017-10-04T02:25:54.711Z,7.13
2017-10-04T02:27:15.670Z,7.17
2017-10-04T02:27:54.659Z,7.15
2017-10-04T02:28:54.648Z,7.25
2017-10-04T02:29:54.632Z,7.33
2017-10-04T02:30:54.586Z,7.36
2017-10-04T02:31:54.563Z,7.35
2017-10-04T02:33:15.558Z,7.40
2017-10-04T02:33:54.524Z,7.42
2017-10-04T02:34:54.509Z,7.45
2017-10-04T02:35:54.489Z,7.48
2017-10-04T02:36:54.444Z,7.54
2017-10-04T02:37:54.443Z,7.48
2017-10-04T02:39:15.416Z,7.56
2017-10-04T02:39:54.397Z,7.72
2017-10-04T02:40:54.367Z,7.67
2017-10-04T02:41:54.374Z,7.69
2017-10-04T02:42:54.339Z,7.70
2017-10-04T02:43:54.346Z,7.73
2017-10-04T02:45:15.296Z,7.79
2017-10-04T02:45:54.262Z,7.80
2017-10-04T02:46:54.241Z,7.87
2017-10-04T02:47:54.258Z,7.79
2017-10-04T02:48:54.198Z,7.85
2017-10-04T02:49:54.197Z,7.73
2017-10-04T02:51:15.138Z,7.77
2017-10-04T02:51:54.138Z,7.80
2017-10-04T02:52:54.129Z,7.73
2017-10-04T02:53:54.093Z,7.69
2017-10-04T02:54:54.064Z,7.69
2017-10-04T02:55:54.067Z,7.66
2017-10-04T02:57:15.047Z,7.66
2017-10-04T02:57:54.002Z,7.82
2017-10-04T02:58:53.989Z,7.76
2017-10-04T02:59:53.967Z,7.72
2017-10-04T03:00:53.957Z,7.72
2017-10-04T03:01:53.914Z,7.76
2017-10-04T03:03:14.904Z,7.80
2017-10-04T03:03:53.886Z,7.72
2017-10-04T03:04:53.854Z,7.77
2017-10-04T03:05:53.833Z,7.69
2017-10-04T03:06:53.820Z,7.79
2017-10-04T03:07:53.802Z,7.73
2017-10-04T03:09:14.784Z,7.87
2017-10-04T03:09:53.759Z,7.85
2017-10-04T03:10:53.735Z,7.70
2017-10-04T03:11:53.731Z,7.77
2017-10-04T03:12:53.692Z,7.75
2017-10-04T03:13:53.673Z,7.70
2017-10-04T03:15:14.677Z,7.73
2017-10-04T03:15:53.627Z,7.72
2017-10-04T03:16:53.603Z,7.77
2017-10-04T03:17:53.608Z,7.72
2017-10-04T03:18:53.542Z,7.72
2017-10-04T03:19:53.535Z,7.75
2017-10-04T03:21:14.547Z,7.66
2017-10-04T03:21:53.499Z,7.67
2017-10-04T03:22:53.488Z,7.66
2017-10-04T03:23:53.448Z,7.57
2017-10-04T03:24:53.418Z,7.61
2017-10-04T03:25:53.412Z,7.54
2017-10-04T03:27:14.404Z,7.63
2017-10-04T03:27:53.366Z,7.69
2017-10-04T03:28:53.356Z,7.67
2017-10-04T03:29:53.329Z,7.73
2017-10-04T03:30:53.317Z,7.76
2017-10-04T03:31:53.308Z,7.73
2017-10-04T03:33:14.260Z,7.77
2017-10-04T03:33:53.225Z,7.90
2017-10-04T03:34:53.245Z,7.90
2017-10-04T03:35:53.232Z,7.93
2017-10-04T03:36:53.190Z,7.88
2017-10-04T03:37:53.184Z,8.00
2017-10-04T03:39:14.149Z,8.01
2017-10-04T03:39:53.104Z,7.94
2017-10-04T03:40:53.109Z,7.93
2017-10-04T03:41:53.068Z,7.98
2017-10-04T03:42:53.068Z,8.00
2017-10-04T03:43:53.050Z,8.08
2017-10-04T03:45:13.998Z,7.97
2017-10-04T03:45:52.981Z,8.06
2017-10-04T03:46:52.981Z,8.01
2017-10-04T03:47:52.955Z,8.05
2017-10-04T03:48:52.921Z,8.01
2017-10-04T03:49:52.898Z,8.01
2017-10-04T03:51:14.283Z,8.09
2017-10-04T03:51:52.845Z,8.09
2017-10-04T03:52:52.853Z,8.10
2017-10-04T03:53:52.843Z,8.05
2017-10-04T03:54:52.824Z,8.13
2017-10-04T03:55:52.841Z,8.16
2017-10-04T03:57:14.278Z,8.20
2017-10-04T03:57:52.774Z,8.15
2017-10-04T03:58:54.727Z,8.18
2017-10-04T03:59:52.696Z,8.23
2017-10-04T04:00:52.693Z,8.28
2017-10-04T04:01:52.655Z,8.33
2017-10-04T04:03:13.634Z,8.31
2017-10-04T04:03:52.653Z,8.36
2017-10-04T04:04:52.588Z,8.34
2017-10-04T04:05:52.586Z,8.42
2017-10-04T04:06:52.540Z,8.46
2017-10-04T04:07:52.536Z,8.41
2017-10-04T04:09:13.519Z,8.51
2017-10-04T04:09:52.474Z,8.42
2017-10-04T04:10:52.474Z,8.51
2017-10-04T04:11:52.461Z,8.45
2017-10-04T04:12:52.475Z,8.42
2017-10-04T04:13:52.411Z,8.55
2017-10-04T04:15:13.379Z,8.49
2017-10-04T04:15:52.343Z,8.55
2017-10-04T04:16:52.321Z,8.52
2017-10-04T04:17:52.317Z,8.48
2017-10-04T04:18:52.312Z,8.51
2017-10-04T04:19:52.300Z,8.53
2017-10-04T04:21:13.266Z,8.49
2017-10-04T04:21:52.244Z,8.56
2017-10-04T04:22:52.184Z,8.45
2017-10-04T04:23:52.187Z,8.46
2017-10-04T04:24:52.309Z,8.44
2017-10-04T04:25:52.225Z,8.38
2017-10-04T04:27:13.298Z,8.36
2017-10-04T04:27:52.229Z,8.38
2017-10-04T04:28:52.158Z,8.34
2017-10-04T04:29:52.264Z,8.31
2017-10-04T04:30:52.224Z,8.31
2017-10-04T04:31:52.095Z,8.28
2017-10-04T04:33:13.187Z,8.31
2017-10-04T04:33:52.028Z,8.36
2017-10-04T04:34:52.021Z,8.28
2017-10-04T04:35:51.984Z,8.31
2017-10-04T04:36:51.954Z,8.33
2017-10-04T04:37:51.948Z,8.31
2017-10-04T04:39:12.960Z,8.24
2017-10-04T04:39:51.920Z,8.23
2017-10-04T04:40:51.886Z,8.16
2017-10-04T04:41:51.800Z,8.15
2017-10-04T04:42:51.829Z,8.16
2017-10-04T04:43:51.781Z,8.15
2017-10-04T04:45:12.749Z,8.10
2017-10-04T04:45:51.742Z,8.12
2017-10-04T04:46:51.686Z,8.12
2017-10-04T04:47:51.727Z,8.10
2017-10-04T04:48:51.684Z,8.13
2017-10-04T04:49:51.655Z,8.15
2017-10-04T04:51:12.616Z,8.13
2017-10-04T04:51:51.607Z,8.13
2017-10-04T04:52:51.600Z,8.09
2017-10-04T04:53:51.570Z,8.09
2017-10-04T04:54:51.538Z,8.13
2017-10-04T04:55:51.552Z,8.05
2017-10-04T04:57:12.544Z,8.05
2017-10-04T04:57:51.592Z,7.95
2017-10-04T04:58:51.470Z,7.97
2017-10-04T04:59:51.444Z,8.00
2017-10-04T05:00:51.415Z,7.90
2017-10-04T05:01:51.398Z,7.87
2017-10-04T05:03:12.400Z,7.91
2017-10-04T05:03:51.362Z,7.90
2017-10-04T05:04:51.319Z,7.91
2017-10-04T05:05:51.329Z,7.91
2017-10-04T05:06:51.369Z,7.93
2017-10-04T05:07:51.266Z,7.87
2017-10-04T05:09:12.264Z,7.79
2017-10-04T05:09:51.395Z,7.82
2017-10-04T05:10:51.514Z,7.75
2017-10-04T05:11:51.171Z,7.73
2017-10-04T05:12:51.194Z,7.76
2017-10-04T05:13:51.136Z,7.80
2017-10-04T05:15:12.097Z,7.70
2017-10-04T05:15:51.089Z,7.73
2017-10-04T05:16:51.139Z,7.80
2017-10-04T05:17:51.082Z,7.77
2017-10-04T05:18:51.057Z,7.77
2017-10-04T05:19:51.058Z,7.67
2017-10-04T05:21:11.999Z,7.63
2017-10-04T05:21:50.997Z,7.67
2017-10-04T05:22:50.935Z,7.63
2017-10-04T05:23:50.950Z,7.70
2017-10-04T05:24:50.892Z,7.61
2017-10-04T05:25:50.887Z,7.66
2017-10-04T05:27:12.024Z,7.67
2017-10-04T05:27:50.875Z,7.66
2017-10-04T05:28:51.758Z,7.66
2017-10-04T05:29:50.844Z,7.77
2017-10-04T05:30:50.800Z,7.72
2017-10-04T05:31:50.764Z,7.76
2017-10-04T05:33:11.833Z,7.73
2017-10-04T05:33:50.804Z,7.70
2017-10-04T05:34:50.798Z,7.63
2017-10-04T05:35:50.724Z,7.69
2017-10-04T05:36:50.842Z,7.67
2017-10-04T05:37:50.719Z,7.72
2017-10-04T05:39:11.853Z,7.80
2017-10-04T05:39:51.969Z,7.75
2017-10-04T05:40:50.591Z,7.75
2017-10-04T05:41:50.555Z,7.70
2017-10-04T05:42:50.552Z,7.73
2017-10-04T05:43:50.568Z,7.70
2017-10-04T05:45:11.506Z,7.76
2017-10-04T05:45:50.491Z,7.79
2017-10-04T05:46:50.460Z,7.75
2017-10-04T05:47:50.426Z,7.70
2017-10-04T05:48:50.432Z,7.75
2017-10-04T05:49:50.400Z,7.87
2017-10-04T05:51:11.351Z,7.82
2017-10-04T05:51:50.345Z,7.73
2017-10-04T05:52:50.322Z,7.77
2017-10-04T05:53:50.272Z,7.75
2017-10-04T05:54:50.260Z,7.82
2017-10-04T05:55:50.266Z,7.88
2017-10-04T05:57:11.254Z,7.85
2017-10-04T05:57:50.246Z,7.90
2017-10-04T05:58:50.183Z,7.95
2017-10-04T05:59:50.202Z,7.97
2017-10-04T06:00:50.154Z,8.01
2017-10-04T06:01:50.177Z,8.09
2017-10-04T06:03:11.103Z,8.03
2017-10-04T06:03:50.062Z,8.03
2017-10-04T06:04:50.054Z,8.10
2017-10-04T06:05:50.042Z,8.19
2017-10-04T06:06:50.051Z,8.28
2017-10-04T06:07:50.023Z,8.24
2017-10-04T06:09:10.987Z,8.33
2017-10-04T06:09:49.980Z,8.33
2017-10-04T06:10:49.926Z,8.36
2017-10-04T06:11:49.968Z,8.46
2017-10-04T06:12:49.863Z,8.42
2017-10-04T06:13:49.892Z,8.51
2017-10-04T06:15:10.858Z,8.56
2017-10-04T06:15:49.842Z,8.66
2017-10-04T06:16:49.820Z,8.70
2017-10-04T06:17:49.798Z,8.63
2017-10-04T06:18:49.843Z,8.70
2017-10-04T06:19:49.768Z,8.81
2017-10-04T06:21:10.797Z,8.82
2017-10-04T06:21:49.708Z,8.87
2017-10-04T06:22:49.695Z,8.88
2017-10-04T06:23:49.709Z,8.82
2017-10-04T06:24:49.692Z,8.95
2017-10-04T06:25:49.616Z,9.00
2017-10-04T06:27:10.582Z,8.92
2017-10-04T06:27:49.573Z,8.97
2017-10-04T06:28:49.578Z,8.99
2017-10-04T06:29:49.566Z,8.95
2017-10-04T06:30:49.537Z,8.97
2017-10-04T06:31:49.542Z,9.04
2017-10-04T06:33:10.465Z,9.04
2017-10-04T06:33:49.451Z,9.06
2017-10-04T06:34:49.415Z,9.08
2017-10-04T06:35:49.414Z,9.04
2017-10-04T06:36:49.395Z,9.08
2017-10-04T06:37:49.401Z,9.03
2017-10-04T06:39:10.366Z,9.08
2017-10-04T06:39:49.318Z,9.11
2017-10-04T06:40:49.306Z,9.04
2017-10-04T06:41:49.275Z,9.10
2017-10-04T06:42:49.267Z,9.04
2017-10-04T06:43:49.231Z,9.25
2017-10-04T06:45:10.229Z,9.36
2017-10-04T06:45:49.198Z,9.37
2017-10-04T06:46:49.189Z,9.55
2017-10-04T06:47:49.209Z,9.59
2017-10-04T06:48:49.113Z,9.80
2017-10-04T06:49:49.167Z,9.95
2017-10-04T06:51:10.110Z,10.12
2017-10-04T06:51:49.109Z,10.16
2017-10-04T06:52:49.066Z,10.33
2017-10-04T06:53:49.041Z,10.37
2017-10-04T06:54:49.009Z,10.48
2017-10-04T06:55:49.003Z,10.56
2017-10-04T06:57:09.998Z,10.56
2017-10-04T06:57:48.966Z,10.60
2017-10-04T06:58:48.924Z,10.71
2017-10-04T06:59:48.918Z,10.75
2017-10-04T07:00:48.919Z,10.82
2017-10-04T07:01:48.884Z,10.81
2017-10-04T07:03:09.860Z,10.97
2017-10-04T07:03:48.865Z,10.97
2017-10-04T07:04:48.819Z,11.04
2017-10-04T07:05:48.780Z,11.04
2017-10-04T07:06:48.770Z,11.05
2017-10-04T07:07:48.758Z,11.07
2017-10-04T07:09:09.738Z,11.05
2017-10-04T07:09:48.715Z,11.08
2017-10-04T07:10:48.691Z,11.08
2017-10-04T07:11:48.644Z,10.92
2017-10-04T07:12:48.656Z,11.07
2017-10-04T07:13:48.650Z,11.07
2017-10-04T07:15:09.588Z,11.14
2017-10-04T07:15:48.592Z,11.12
2017-10-04T07:16:48.546Z,11.18
2017-10-04T07:17:48.526Z,11.17
2017-10-04T07:18:48.604Z,11.22
2017-10-04T07:19:48.505Z,11.15
2017-10-04T07:21:09.477Z,11.22
2017-10-04T07:21:48.448Z,11.26
2017-10-04T07:22:48.443Z,11.33
2017-10-04T07:23:48.396Z,11.35
2017-10-04T07:24:48.400Z,11.51
2017-10-04T07:25:48.398Z,11.66
2017-10-04T07:27:09.359Z,11.73
2017-10-04T07:27:48.392Z,11.87
2017-10-04T07:28:48.342Z,11.90
2017-10-04T07:29:48.290Z,12.20
2017-10-04T07:30:48.282Z,12.15
2017-10-04T07:31:48.292Z,12.17
2017-10-04T07:33:09.331Z,12.10
2017-10-04T07:33:48.222Z,12.06
2017-10-04T07:34:48.217Z,12.18
2017-10-04T07:35:48.210Z,12.25
2017-10-04T07:36:48.173Z,12.40
2017-10-04T07:37:48.180Z,12.49
2017-10-04T07:39:09.133Z,12.79
2017-10-04T07:39:48.101Z,12.91
2017-10-04T07:40:48.136Z,12.78
2017-10-04T07:41:48.065Z,12.75
2017-10-04T07:42:48.077Z,12.87
2017-10-04T07:43:48.089Z,12.93
2017-10-04T07:45:09.031Z,12.87
2017-10-04T07:45:48.006Z,12.75
2017-10-04T07:46:47.983Z,12.70
2017-10-04T07:47:49.822Z,12.54
2017-10-04T07:48:47.966Z,12.43
2017-10-04T07:49:48.051Z,12.45
2017-10-04T07:51:08.907Z,12.47
2017-10-04T07:51:47.958Z,12.46
2017-10-04T07:52:47.900Z,12.47
2017-10-04T07:53:47.891Z,12.42
2017-10-04T07:54:47.836Z,12.43
2017-10-04T07:55:47.806Z,12.47
2017-10-04T07:57:08.837Z,12.57
2017-10-04T07:57:47.782Z,12.49
2017-10-04T07:58:47.820Z,12.43
2017-10-04T07:59:47.729Z,12.21
2017-10-04T08:00:47.761Z,12.15
2017-10-04T08:01:47.729Z,12.03
2017-10-04T08:03:08.704Z,12.02
2017-10-04T08:03:47.669Z,12.03
2017-10-04T08:04:47.653Z,12.03
2017-10-04T08:05:47.650Z,12.10
2017-10-04T08:06:47.611Z,12.12
2017-10-04T08:07:47.579Z,12.25
2017-10-04T08:09:08.815Z,12.37
2017-10-04T08:09:47.566Z,12.35
2017-10-04T08:10:47.682Z,12.40
2017-10-04T08:11:47.741Z,12.32
2017-10-04T08:12:47.582Z,12.37
2017-10-04T08:13:47.854Z,12.39
2017-10-04T08:15:08.658Z,12.35
2017-10-04T08:15:47.775Z,12.39
2017-10-04T08:16:47.418Z,12.46
2017-10-04T08:17:47.417Z,12.60
2017-10-04T08:18:47.394Z,12.70
2017-10-04T08:19:47.387Z,12.70
2017-10-04T08:21:08.359Z,12.72
2017-10-04T08:21:47.335Z,12.79
2017-10-04T08:22:47.322Z,12.83
2017-10-04T08:23:47.296Z,12.86
2017-10-04T08:24:47.279Z,12.85
2017-10-04T08:25:47.247Z,12.94
2017-10-04T08:27:08.234Z,13.09
2017-10-04T08:27:47.242Z,13.31
2017-10-04T08:28:47.262Z,13.33
2017-10-04T08:29:47.198Z,13.47
2017-10-04T08:30:47.799Z,13.54
2017-10-04T08:31:47.121Z,13.65
2017-10-04T08:33:08.140Z,13.75
2017-10-04T08:33:47.084Z,13.71
2017-10-04T08:34:47.083Z,13.87
2017-10-04T08:35:47.081Z,13.95
2017-10-04T08:36:47.160Z,13.95
2017-10-04T08:37:47.156Z,13.97
2017-10-04T08:39:08.028Z,14.00
2017-10-04T08:39:46.998Z,14.00
2017-10-04T08:40:46.984Z,13.96
2017-10-04T08:41:46.966Z,14.03
2017-10-04T08:42:46.957Z,13.95
2017-10-04T08:43:46.941Z,14.00
2017-10-04T08:45:07.924Z,14.04
2017-10-04T08:45:46.872Z,13.97
2017-10-04T08:46:46.939Z,14.12
2017-10-04T08:47:46.847Z,14.25
2017-10-04T08:48:46.844Z,14.33
2017-10-04T08:49:46.833Z,14.53
2017-10-04T08:51:07.817Z,14.63
2017-10-04T08:51:46.771Z,14.62
2017-10-04T08:52:46.759Z,14.36
2017-10-04T08:53:46.729Z,14.33
2017-10-04T08:54:46.728Z,14.30
2017-10-04T08:55:46.696Z,14.51
2017-10-04T08:57:07.686Z,14.63
2017-10-04T08:57:46.699Z,14.79
2017-10-04T08:58:46.668Z,14.84
2017-10-04T08:59:46.625Z,14.85
2017-10-04T09:00:46.618Z,15.02
2017-10-04T09:01:46.633Z,15.14
2017-10-04T09:03:07.586Z,15.00
2017-10-04T09:03:46.556Z,15.00
2017-10-04T09:04:46.565Z,14.99
2017-10-04T09:05:46.549Z,15.31
2017-10-04T09:06:46.628Z,15.75
2017-10-04T09:07:46.481Z,16.24
2017-10-04T09:09:07.459Z,16.23
2017-10-04T09:09:46.459Z,16.58
2017-10-04T09:10:46.418Z,17.34
2017-10-04T09:11:46.414Z,18.03
2017-10-04T09:12:46.408Z,18.49
2017-10-04T09:13:46.413Z,19.09
2017-10-04T09:15:07.372Z,19.30
2017-10-04T09:15:46.357Z,19.12
2017-10-04T09:16:46.335Z,18.62
2017-10-04T09:17:46.310Z,18.16
2017-10-04T09:18:46.305Z,17.83
2017-10-04T09:19:46.305Z,17.56
2017-10-04T09:21:07.299Z,17.27
2017-10-04T09:21:46.304Z,17.06
2017-10-04T09:22:46.227Z,16.83
2017-10-04T09:23:46.236Z,16.61
2017-10-04T09:24:46.249Z,16.66
2017-10-04T09:25:46.191Z,17.14
2017-10-04T09:27:07.176Z,17.79
2017-10-04T09:27:46.174Z,17.98
2017-10-04T09:28:46.144Z,17.86
2017-10-04T09:29:46.176Z,17.80
2017-10-04T09:30:46.117Z,17.85
2017-10-04T09:31:46.100Z,17.89
2017-10-04T09:33:07.110Z,17.65
2017-10-04T09:33:46.081Z,17.45
2017-10-04T09:34:46.059Z,17.38
2017-10-04T09:35:46.060Z,17.36
2017-10-04T09:36:46.094Z,17.57
2017-10-04T09:37:46.041Z,17.89
2017-10-04T09:39:07.005Z,18.08
2017-10-04T09:39:45.992Z,18.37
2017-10-04T09:40:45.972Z,18.63
2017-10-04T09:41:46.005Z,18.77
2017-10-04T09:42:45.937Z,18.73
2017-10-04T09:43:45.929Z,18.83
2017-10-04T09:45:06.900Z,18.99
2017-10-04T09:45:45.917Z,19.11
2017-10-04T09:46:45.883Z,18.86
2017-10-04T09:47:45.850Z,18.50
2017-10-04T09:48:45.910Z,18.04
2017-10-04T09:49:45.859Z,17.74
2017-10-04T09:51:06.842Z,17.23
2017-10-04T09:51:45.828Z,16.91
2017-10-04T09:52:45.799Z,16.79
2017-10-04T09:53:45.782Z,16.66
2017-10-04T09:54:45.800Z,16.38
2017-10-04T09:55:45.736Z,16.23
2017-10-04T09:57:06.729Z,16.08
2017-10-04T09:57:45.758Z,15.83
2017-10-04T09:58:45.698Z,15.80
2017-10-04T09:59:45.720Z,15.67
2017-10-04T10:00:45.706Z,15.42
2017-10-04T10:01:45.668Z,15.37
2017-10-04T10:03:06.659Z,15.42
2017-10-04T10:03:45.635Z,15.52
2017-10-04T10:04:45.649Z,15.72
2017-10-04T10:05:45.590Z,15.80
2017-10-04T10:06:45.587Z,15.75
2017-10-04T10:07:45.601Z,15.80
2017-10-04T10:09:06.572Z,15.82
2017-10-04T10:09:45.537Z,15.91
2017-10-04T10:10:46.371Z,15.88
2017-10-04T10:11:45.549Z,15.68
2017-10-04T10:12:45.959Z,15.68
2017-10-04T10:13:45.464Z,15.77
2017-10-04T10:15:06.532Z,16.58
2017-10-04T10:15:46.190Z,16.87
2017-10-04T10:16:45.462Z,17.22
2017-10-04T10:17:45.604Z,17.57
2017-10-04T10:18:45.550Z,17.74
2017-10-04T10:19:45.406Z,17.60
2017-10-04T10:21:06.386Z,17.42
2017-10-04T10:21:45.394Z,17.23
2017-10-04T10:22:45.376Z,16.99
2017-10-04T10:23:45.350Z,16.84
2017-10-04T10:24:45.700Z,16.66
2017-10-04T10:25:45.300Z,16.54
2017-10-04T10:27:06.296Z,16.35
2017-10-04T10:27:45.248Z,16.16
2017-10-04T10:28:45.240Z,16.10
2017-10-04T10:29:45.198Z,16.01
2017-10-04T10:30:45.186Z,15.84
2017-10-04T10:31:45.218Z,15.70
2017-10-04T10:33:06.214Z,15.54
2017-10-04T10:33:45.192Z,15.35
2017-10-04T10:34:45.589Z,15.19
2017-10-04T10:35:45.125Z,15.21
2017-10-04T10:36:45.087Z,15.02
2017-10-04T10:37:45.077Z,14.91
2017-10-04T10:39:06.091Z,14.99
2017-10-04T10:39:45.083Z,14.88
2017-10-04T10:40:45.121Z,14.79
2017-10-04T10:41:45.032Z,14.73
2017-10-04T10:42:45.030Z,14.69
2017-10-04T10:43:44.984Z,14.73
2017-10-04T10:45:05.996Z,14.84
2017-10-04T10:45:44.953Z,14.88
2017-10-04T10:46:44.922Z,14.88
2017-10-04T10:47:44.944Z,14.86
2017-10-04T10:48:44.928Z,14.73
2017-10-04T10:49:44.894Z,14.72
2017-10-04T10:51:05.866Z,14.72
2017-10-04T10:51:44.870Z,14.62
2017-10-04T10:52:44.854Z,14.63
2017-10-04T10:53:44.857Z,14.78
2017-10-04T10:54:44.793Z,14.91
2017-10-04T10:55:44.788Z,15.04
2017-10-04T10:57:05.771Z,15.22
2017-10-04T10:57:44.746Z,15.29
2017-10-04T10:58:44.718Z,15.27
2017-10-04T10:59:44.727Z,15.19
2017-10-04T11:00:44.676Z,15.04
2017-10-04T11:01:44.682Z,15.02
2017-10-04T11:03:05.649Z,14.81
2017-10-04T11:03:44.651Z,14.62
2017-10-04T11:04:44.623Z,14.53
2017-10-04T11:05:44.591Z,14.45
2017-10-04T11:06:44.571Z,14.18
2017-10-04T11:07:44.558Z,14.22
2017-10-04T11:09:05.536Z,14.14
2017-10-04T11:09:44.563Z,14.15
2017-10-04T11:10:44.522Z,14.22
2017-10-04T11:11:44.515Z,14.53
2017-10-04T11:12:44.473Z,14.78
2017-10-04T11:13:44.449Z,14.99
2017-10-04T11:15:05.465Z,15.25
2017-10-04T11:15:44.415Z,15.43
2017-10-04T11:16:44.410Z,15.43
2017-10-04T11:17:44.400Z,15.58
2017-10-04T11:18:44.365Z,15.67
2017-10-04T11:19:44.348Z,15.62
2017-10-04T11:21:05.325Z,15.65
2017-10-04T11:21:44.294Z,15.68
2017-10-04T11:22:44.285Z,15.80
2017-10-04T11:23:44.381Z,15.86
2017-10-04T11:24:44.250Z,15.98
2017-10-04T11:25:44.242Z,16.10
2017-10-04T11:27:05.217Z,16.09
2017-10-04T11:27:44.247Z,16.15
2017-10-04T11:28:44.176Z,16.26
2017-10-04T11:29:44.181Z,16.39
2017-10-04T11:30:44.153Z,16.54
2017-10-04T11:31:44.159Z,16.56
2017-10-04T11:33:05.123Z,16.42
2017-10-04T11:33:44.099Z,16.39
2017-10-04T11:34:44.097Z,16.26
2017-10-04T11:35:44.075Z,16.29
2017-10-04T11:36:44.103Z,16.12
2017-10-04T11:37:44.059Z,16.02
2017-10-04T11:39:05.069Z,16.10
2017-10-04T11:39:44.040Z,16.04
2017-10-04T11:40:44.025Z,16.16
2017-10-04T11:41:44.011Z,16.35
2017-10-04T11:42:43.956Z,16.65
2017-10-04T11:43:43.947Z,16.96
2017-10-04T11:45:04.947Z,17.08
2017-10-04T11:45:43.935Z,17.19
2017-10-04T11:46:43.905Z,16.99
2017-10-04T11:47:43.925Z,16.90
2017-10-04T11:48:43.866Z,16.84
2017-10-04T11:49:43.846Z,16.65
2017-10-04T11:51:04.850Z,16.42
2017-10-04T11:51:43.802Z,16.35
2017-10-04T11:52:43.792Z,16.29
2017-10-04T11:53:43.775Z,16.16
2017-10-04T11:54:43.752Z,15.90
2017-10-04T11:55:43.738Z,15.80
2017-10-04T11:57:04.739Z,15.77
2017-10-04T11:57:43.785Z,15.90
2017-10-04T11:58:43.708Z,15.82
2017-10-04T11:59:43.692Z,15.88
2017-10-04T12:00:43.659Z,15.73
2017-10-04T12:01:43.754Z,15.73
2017-10-04T12:03:04.638Z,15.84
2017-10-04T12:03:43.611Z,15.84
2017-10-04T12:04:43.604Z,16.10
2017-10-04T12:05:43.567Z,16.57
2017-10-04T12:06:43.602Z,16.93
2017-10-04T12:07:43.557Z,17.31
2017-10-04T12:09:04.543Z,17.89
2017-10-04T12:09:43.518Z,18.77
2017-10-04T12:10:43.493Z,19.47
2017-10-04T12:11:43.483Z,19.48
2017-10-04T12:12:43.465Z,19.39
2017-10-04T12:13:43.452Z,18.99
2017-10-04T12:15:04.444Z,18.83
2017-10-04T12:15:43.460Z,18.62
2017-10-04T12:16:43.408Z,18.53
2017-10-04T12:17:43.410Z,18.53
2017-10-04T12:18:43.374Z,18.45
2017-10-04T12:19:43.354Z,18.25
2017-10-04T12:21:04.422Z,17.94
2017-10-04T12:21:43.384Z,17.74
2017-10-04T12:22:43.339Z,17.34
2017-10-04T12:23:43.318Z,17.05
2017-10-04T12:24:43.302Z,16.76
2017-10-04T12:25:43.275Z,16.47
2017-10-04T12:27:04.271Z,16.24
2017-10-04T12:27:43.271Z,16.13
2017-10-04T12:28:43.296Z,15.98
2017-10-04T12:29:43.226Z,15.84
2017-10-04T12:30:43.233Z,15.80
2017-10-04T12:31:43.184Z,15.75
2017-10-04T12:33:04.183Z,15.65
2017-10-04T12:33:43.153Z,15.58
2017-10-04T12:34:43.133Z,15.54
2017-10-04T12:35:43.172Z,15.68
2017-10-04T12:36:43.094Z,15.79
2017-10-04T12:37:43.137Z,15.77
2017-10-04T12:39:04.083Z,15.84
2017-10-04T12:39:43.064Z,15.77
2017-10-04T12:40:43.055Z,15.88
2017-10-04T12:41:43.032Z,16.17
2017-10-04T12:42:43.009Z,16.38
2017-10-04T12:43:43.015Z,16.57
2017-10-04T12:45:03.979Z,16.56
2017-10-04T12:45:42.978Z,16.54
2017-10-04T12:46:42.978Z,16.61
2017-10-04T12:47:42.929Z,16.58
2017-10-04T12:48:42.918Z,16.66
2017-10-04T12:49:42.912Z,16.68
2017-10-04T12:51:03.930Z,16.66
2017-10-04T12:51:42.894Z,16.57
2017-10-04T12:52:42.880Z,16.61
2017-10-04T12:53:42.860Z,16.53
2017-10-04T12:54:42.812Z,16.42
2017-10-04T12:55:42.810Z,16.43
2017-10-04T12:57:03.808Z,16.47
2017-10-04T12:57:42.779Z,16.41
2017-10-04T12:58:42.773Z,16.42
2017-10-04T12:59:42.751Z,16.50
2017-10-04T13:00:42.741Z,16.53
2017-10-04T13:01:42.695Z,16.54
2017-10-04T13:03:03.687Z,16.39
2017-10-04T13:03:42.678Z,16.33
2017-10-04T13:04:42.652Z,16.31
2017-10-04T13:05:42.669Z,16.26